sensor_id;sensor_type;location;lat;lon;timestamp;pressure;altitude;pressure_sealevel;temperature;humidity
25498;BME280;13406;53.380;7.226;2023-04-06T00:01:26;102297.28;;;3.90;100.00
25498;BME280;13406;53.380;7.226;2023-04-06T00:03:51;102260.34;;;3.75;100.00
25498;BME280;13406;53.380;7.226;2023-04-06T00:06:17;102259.50;;;3.97;100.00
25498;BME280;13406;53.380;7.226;2023-04-06T00:08:42;102268.53;;;3.72;100.00
25498;BME280;13406;53.380;7.226;2023-04-06T00:11:08;102280.28;;;4.03;100.00
25498;BME280;13406;53.380;7.226;2023-04-06T00:13:34;102248.13;;;3.39;100.00
25498;BME280;13406;53.380;7.226;2023-04-06T00:15:59;102289.19;;;3.80;100.00
25498;BME280;13406;53.380;7.226;2023-04-06T00:18:25;102276.53;;;4.06;100.00
25498;BME280;13406;53.380;7.226;2023-04-06T00:20:51;102277.84;;;4.12;100.00
25498;BME280;13406;53.380;7.226;2023-04-06T00:23:17;102270.84;;;4.11;100.00
25498;BME280;13406;53.380;7.226;2023-04-06T00:25:42;102273.88;;;3.95;100.00
25498;BME280;13406;53.380;7.226;2023-04-06T00:28:08;102242.25;;;3.92;100.00
25498;BME280;13406;53.380;7.226;2023-04-06T00:30:33;102260.59;;;3.95;100.00
25498;BME280;13406;53.380;7.226;2023-04-06T00:32:59;102262.41;;;3.83;100.00
25498;BME280;13406;53.380;7.226;2023-04-06T00:35:25;102267.81;;;3.81;100.00
25498;BME280;13406;53.380;7.226;2023-04-06T00:37:51;102237.31;;;3.65;100.00
25498;BME280;13406;53.380;7.226;2023-04-06T00:40:17;102249.47;;;3.78;100.00
25498;BME280;13406;53.380;7.226;2023-04-06T00:42:43;102265.56;;;3.88;100.00
25498;BME280;13406;53.380;7.226;2023-04-06T00:45:09;102228.88;;;3.71;100.00
25498;BME280;13406;53.380;7.226;2023-04-06T00:47:35;102264.06;;;3.73;100.00
25498;BME280;13406;53.380;7.226;2023-04-06T00:50:00;102250.56;;;3.76;100.00
25498;BME280;13406;53.380;7.226;2023-04-06T00:52:26;102204.69;;;3.29;100.00
25498;BME280;13406;53.380;7.226;2023-04-06T00:54:51;102266.84;;;3.71;100.00
25498;BME280;13406;53.380;7.226;2023-04-06T00:57:17;102263.44;;;3.58;100.00
25498;BME280;13406;53.380;7.226;2023-04-06T00:59:43;102255.72;;;3.44;100.00
25498;BME280;13406;53.380;7.226;2023-04-06T01:02:09;102267.03;;;3.34;100.00
25498;BME280;13406;53.380;7.226;2023-04-06T01:04:34;102260.75;;;3.24;100.00
25498;BME280;13406;53.380;7.226;2023-04-06T01:07:00;102267.44;;;3.17;100.00
25498;BME280;13406;53.380;7.226;2023-04-06T01:09:30;102262.00;;;3.54;100.00
25498;BME280;13406;53.380;7.226;2023-04-06T01:11:58;102241.63;;;3.54;100.00
25498;BME280;13406;53.380;7.226;2023-04-06T01:14:25;102236.66;;;3.38;100.00
25498;BME280;13406;53.380;7.226;2023-04-06T01:16:51;102190.00;;;3.25;100.00
25498;BME280;13406;53.380;7.226;2023-04-06T01:19:17;102247.66;;;3.45;100.00
25498;BME280;13406;53.380;7.226;2023-04-06T01:21:42;102251.34;;;3.31;100.00
25498;BME280;13406;53.380;7.226;2023-04-06T01:24:09;102250.63;;;3.40;100.00
25498;BME280;13406;53.380;7.226;2023-04-06T01:26:35;102196.09;;;3.14;100.00
25498;BME280;13406;53.380;7.226;2023-04-06T01:29:02;102228.19;;;3.22;100.00
25498;BME280;13406;53.380;7.226;2023-04-06T01:31:28;102247.28;;;3.38;100.00
25498;BME280;13406;53.380;7.226;2023-04-06T01:33:54;102251.72;;;3.38;100.00
25498;BME280;13406;53.380;7.226;2023-04-06T01:36:20;102205.41;;;3.20;100.00
25498;BME280;13406;53.380;7.226;2023-04-06T01:38:45;102242.22;;;3.47;100.00
25498;BME280;13406;53.380;7.226;2023-04-06T01:41:11;102233.28;;;3.36;100.00
25498;BME280;13406;53.380;7.226;2023-04-06T01:43:36;102228.25;;;3.67;100.00
25498;BME280;13406;53.380;7.226;2023-04-06T01:46:02;102201.09;;;3.52;100.00
25498;BME280;13406;53.380;7.226;2023-04-06T01:48:28;102205.81;;;3.49;100.00
25498;BME280;13406;53.380;7.226;2023-04-06T01:50:54;102207.47;;;3.50;100.00
25498;BME280;13406;53.380;7.226;2023-04-06T01:53:19;102116.91;;;2.98;100.00
25498;BME280;13406;53.380;7.226;2023-04-06T01:55:45;102202.06;;;3.40;100.00
25498;BME280;13406;53.380;7.226;2023-04-06T01:58:11;102160.00;;;2.89;100.00
25498;BME280;13406;53.380;7.226;2023-04-06T02:00:36;102208.59;;;3.47;100.00
25498;BME280;13406;53.380;7.226;2023-04-06T02:03:02;102205.28;;;3.21;100.00
25498;BME280;13406;53.380;7.226;2023-04-06T02:05:29;102182.28;;;2.86;100.00
25498;BME280;13406;53.380;7.226;2023-04-06T02:07:55;102201.13;;;3.06;100.00
25498;BME280;13406;53.380;7.226;2023-04-06T02:10:21;102211.28;;;3.12;100.00
25498;BME280;13406;53.380;7.226;2023-04-06T02:12:47;102198.59;;;2.93;100.00
25498;BME280;13406;53.380;7.226;2023-04-06T02:15:13;102202.53;;;2.87;100.00
25498;BME280;13406;53.380;7.226;2023-04-06T02:17:40;102177.47;;;2.91;100.00
25498;BME280;13406;53.380;7.226;2023-04-06T02:20:06;102207.03;;;3.09;100.00
25498;BME280;13406;53.380;7.226;2023-04-06T02:22:32;102195.06;;;2.81;100.00
25498;BME280;13406;53.380;7.226;2023-04-06T02:24:57;102102.50;;;2.08;100.00
25498;BME280;13406;53.380;7.226;2023-04-06T02:27:23;102145.50;;;2.35;100.00
25498;BME280;13406;53.380;7.226;2023-04-06T02:29:49;102204.59;;;2.95;100.00
25498;BME280;13406;53.380;7.226;2023-04-06T02:32:15;102161.91;;;2.52;100.00
25498;BME280;13406;53.380;7.226;2023-04-06T02:34:40;102222.81;;;3.00;100.00
25498;BME280;13406;53.380;7.226;2023-04-06T02:37:06;102192.59;;;2.67;100.00
25498;BME280;13406;53.380;7.226;2023-04-06T02:39:31;102225.38;;;2.77;100.00
25498;BME280;13406;53.380;7.226;2023-04-06T02:41:57;102217.41;;;3.01;100.00
25498;BME280;13406;53.380;7.226;2023-04-06T02:44:23;102214.56;;;3.15;100.00
25498;BME280;13406;53.380;7.226;2023-04-06T02:46:48;102217.69;;;3.21;100.00
25498;BME280;13406;53.380;7.226;2023-04-06T02:49:13;102219.97;;;3.14;100.00
25498;BME280;13406;53.380;7.226;2023-04-06T02:51:39;102103.84;;;2.37;100.00
25498;BME280;13406;53.380;7.226;2023-04-06T02:54:05;102183.16;;;2.63;100.00
25498;BME280;13406;53.380;7.226;2023-04-06T02:56:30;102223.78;;;2.75;100.00
25498;BME280;13406;53.380;7.226;2023-04-06T02:58:56;102113.00;;;2.09;100.00
25498;BME280;13406;53.380;7.226;2023-04-06T03:01:21;102210.50;;;2.87;100.00
25498;BME280;13406;53.380;7.226;2023-04-06T03:03:47;102194.22;;;2.81;100.00
25498;BME280;13406;53.380;7.226;2023-04-06T03:06:13;102137.66;;;2.58;100.00
25498;BME280;13406;53.380;7.226;2023-04-06T03:08:38;102173.34;;;2.76;100.00
25498;BME280;13406;53.380;7.226;2023-04-06T03:11:04;102222.78;;;2.88;100.00
25498;BME280;13406;53.380;7.226;2023-04-06T03:13:29;102230.22;;;2.83;100.00
25498;BME280;13406;53.380;7.226;2023-04-06T03:15:55;102228.91;;;2.89;100.00
25498;BME280;13406;53.380;7.226;2023-04-06T03:18:24;102199.28;;;2.84;100.00
25498;BME280;13406;53.380;7.226;2023-04-06T03:20:51;102228.91;;;2.89;100.00
25498;BME280;13406;53.380;7.226;2023-04-06T03:23:16;102228.44;;;2.84;100.00
25498;BME280;13406;53.380;7.226;2023-04-06T03:25:42;102230.22;;;2.83;100.00
25498;BME280;13406;53.380;7.226;2023-04-06T03:28:07;102229.50;;;2.81;100.00
25498;BME280;13406;53.380;7.226;2023-04-06T03:30:34;102240.63;;;2.98;100.00
25498;BME280;13406;53.380;7.226;2023-04-06T03:32:59;102233.56;;;3.09;100.00
25498;BME280;13406;53.380;7.226;2023-04-06T03:35:25;102220.50;;;2.95;100.00
25498;BME280;13406;53.380;7.226;2023-04-06T03:37:50;102221.88;;;2.77;100.00
25498;BME280;13406;53.380;7.226;2023-04-06T03:40:16;102231.50;;;2.78;100.00
25498;BME280;13406;53.380;7.226;2023-04-06T03:42:41;102208.34;;;2.68;100.00
25498;BME280;13406;53.380;7.226;2023-04-06T03:45:07;102223.06;;;2.72;100.00
25498;BME280;13406;53.380;7.226;2023-04-06T03:47:33;102147.91;;;2.38;100.00
25498;BME280;13406;53.380;7.226;2023-04-06T03:49:58;102214.28;;;2.72;100.00
25498;BME280;13406;53.380;7.226;2023-04-06T03:52:24;102208.22;;;2.94;100.00
25498;BME280;13406;53.380;7.226;2023-04-06T03:54:50;102188.03;;;2.80;100.00
25498;BME280;13406;53.380;7.226;2023-04-06T03:57:15;102207.00;;;2.87;100.00
25498;BME280;13406;53.380;7.226;2023-04-06T03:59:41;102203.22;;;2.54;100.00
25498;BME280;13406;53.380;7.226;2023-04-06T04:02:06;102215.97;;;2.73;100.00
25498;BME280;13406;53.380;7.226;2023-04-06T04:07:09;102165.66;;;2.49;100.00
25498;BME280;13406;53.380;7.226;2023-04-06T04:09:35;102173.41;;;2.39;100.00
25498;BME280;13406;53.380;7.226;2023-04-06T04:12:00;102174.88;;;2.19;100.00
25498;BME280;13406;53.380;7.226;2023-04-06T04:14:26;102219.59;;;2.72;100.00
25498;BME280;13406;53.380;7.226;2023-04-06T04:16:52;102185.03;;;2.49;100.00
25498;BME280;13406;53.380;7.226;2023-04-06T04:19:17;102221.19;;;2.86;100.00
25498;BME280;13406;53.380;7.226;2023-04-06T04:21:44;102199.63;;;2.55;100.00
25498;BME280;13406;53.380;7.226;2023-04-06T04:24:10;102212.13;;;2.53;100.00
25498;BME280;13406;53.380;7.226;2023-04-06T04:26:37;102213.81;;;2.54;100.00
25498;BME280;13406;53.380;7.226;2023-04-06T04:29:03;102208.44;;;2.19;100.00
25498;BME280;13406;53.380;7.226;2023-04-06T04:31:28;102205.72;;;2.44;100.00
25498;BME280;13406;53.380;7.226;2023-04-06T04:33:54;102215.16;;;2.60;100.00
25498;BME280;13406;53.380;7.226;2023-04-06T04:36:20;102206.69;;;2.43;100.00
25498;BME280;13406;53.380;7.226;2023-04-06T04:38:46;102142.19;;;2.08;100.00
25498;BME280;13406;53.380;7.226;2023-04-06T04:41:11;102073.31;;;1.72;100.00
25498;BME280;13406;53.380;7.226;2023-04-06T04:43:36;102120.13;;;1.96;100.00
25498;BME280;13406;53.380;7.226;2023-04-06T04:46:02;102185.22;;;2.35;100.00
25498;BME280;13406;53.380;7.226;2023-04-06T04:48:29;102176.81;;;2.41;100.00
25498;BME280;13406;53.380;7.226;2023-04-06T04:50:54;102134.47;;;2.04;100.00
25498;BME280;13406;53.380;7.226;2023-04-06T04:53:20;102157.84;;;2.11;100.00
25498;BME280;13406;53.380;7.226;2023-04-06T04:55:45;102151.34;;;2.03;100.00
25498;BME280;13406;53.380;7.226;2023-04-06T04:58:11;102164.91;;;2.47;100.00
25498;BME280;13406;53.380;7.226;2023-04-06T05:00:42;102101.78;;;2.06;100.00
25498;BME280;13406;53.380;7.226;2023-04-06T05:03:07;102150.28;;;2.30;100.00
25498;BME280;13406;53.380;7.226;2023-04-06T05:05:36;102158.06;;;2.08;100.00
25498;BME280;13406;53.380;7.226;2023-04-06T05:08:02;102171.75;;;2.38;100.00
25498;BME280;13406;53.380;7.226;2023-04-06T05:10:27;102164.34;;;2.31;100.00
25498;BME280;13406;53.380;7.226;2023-04-06T05:12:53;102116.53;;;1.97;100.00
25498;BME280;13406;53.380;7.226;2023-04-06T05:15:18;102141.78;;;1.77;100.00
25498;BME280;13406;53.380;7.226;2023-04-06T05:17:44;102110.47;;;1.71;100.00
25498;BME280;13406;53.380;7.226;2023-04-06T05:20:10;102123.47;;;1.74;100.00
25498;BME280;13406;53.380;7.226;2023-04-06T05:22:35;102159.03;;;2.07;100.00
25498;BME280;13406;53.380;7.226;2023-04-06T05:25:02;102157.81;;;2.23;100.00
25498;BME280;13406;53.380;7.226;2023-04-06T05:27:27;102153.31;;;2.13;100.00
25498;BME280;13406;53.380;7.226;2023-04-06T05:29:53;102148.34;;;2.08;100.00
25498;BME280;13406;53.380;7.226;2023-04-06T05:32:18;102147.03;;;2.14;100.00
25498;BME280;13406;53.380;7.226;2023-04-06T05:34:48;102153.56;;;2.69;100.00
25498;BME280;13406;53.380;7.226;2023-04-06T05:37:14;102136.53;;;2.25;100.00
25498;BME280;13406;53.380;7.226;2023-04-06T05:39:40;102135.94;;;2.57;100.00
25498;BME280;13406;53.380;7.226;2023-04-06T05:42:06;102083.13;;;2.07;100.00
25498;BME280;13406;53.380;7.226;2023-04-06T05:44:32;102097.03;;;1.98;100.00
25498;BME280;13406;53.380;7.226;2023-04-06T05:46:57;102122.19;;;2.52;100.00
25498;BME280;13406;53.380;7.226;2023-04-06T05:49:23;102038.75;;;2.11;100.00
25498;BME280;13406;53.380;7.226;2023-04-06T05:51:48;102127.84;;;2.47;100.00
25498;BME280;13406;53.380;7.226;2023-04-06T05:54:14;102112.00;;;2.58;100.00
25498;BME280;13406;53.380;7.226;2023-04-06T05:56:39;102101.97;;;2.51;100.00
25498;BME280;13406;53.380;7.226;2023-04-06T05:59:05;102067.53;;;2.15;100.00
25498;BME280;13406;53.380;7.226;2023-04-06T06:01:31;102102.59;;;2.65;100.00
25498;BME280;13406;53.380;7.226;2023-04-06T06:03:56;102062.63;;;2.68;100.00
25498;BME280;13406;53.380;7.226;2023-04-06T06:06:22;102083.28;;;2.87;100.00
25498;BME280;13406;53.380;7.226;2023-04-06T06:08:47;102062.53;;;2.70;100.00
25498;BME280;13406;53.380;7.226;2023-04-06T06:11:12;102047.38;;;2.37;100.00
25498;BME280;13406;53.380;7.226;2023-04-06T06:13:38;102069.66;;;2.69;100.00
25498;BME280;13406;53.380;7.226;2023-04-06T06:16:04;102052.75;;;2.59;100.00
25498;BME280;13406;53.380;7.226;2023-04-06T06:18:30;102076.53;;;2.94;100.00
25498;BME280;13406;53.380;7.226;2023-04-06T06:20:56;102046.31;;;3.08;100.00
25498;BME280;13406;53.380;7.226;2023-04-06T06:23:22;102026.63;;;2.77;100.00
25498;BME280;13406;53.380;7.226;2023-04-06T06:25:47;102050.16;;;3.04;100.00
25498;BME280;13406;53.380;7.226;2023-04-06T06:28:13;102035.84;;;3.07;100.00
25498;BME280;13406;53.380;7.226;2023-04-06T06:30:38;102033.66;;;3.23;100.00
25498;BME280;13406;53.380;7.226;2023-04-06T06:33:04;101997.75;;;2.97;100.00
25498;BME280;13406;53.380;7.226;2023-04-06T06:35:30;102039.19;;;3.31;100.00
25498;BME280;13406;53.380;7.226;2023-04-06T06:37:55;102010.09;;;3.41;100.00
25498;BME280;13406;53.380;7.226;2023-04-06T06:40:20;102031.94;;;3.45;100.00
25498;BME280;13406;53.380;7.226;2023-04-06T06:42:49;102031.31;;;3.41;100.00
25498;BME280;13406;53.380;7.226;2023-04-06T06:45:14;101953.19;;;2.90;100.00
25498;BME280;13406;53.380;7.226;2023-04-06T06:47:40;102032.19;;;3.42;100.00
25498;BME280;13406;53.380;7.226;2023-04-06T06:50:06;102031.41;;;3.73;100.00
25498;BME280;13406;53.380;7.226;2023-04-06T06:52:32;102001.28;;;3.52;100.00
25498;BME280;13406;53.380;7.226;2023-04-06T06:54:57;102012.44;;;3.78;100.00
25498;BME280;13406;53.380;7.226;2023-04-06T06:57:23;101996.72;;;3.54;100.00
25498;BME280;13406;53.380;7.226;2023-04-06T06:59:48;102000.66;;;3.71;100.00
25498;BME280;13406;53.380;7.226;2023-04-06T07:02:14;101979.94;;;3.97;100.00
25498;BME280;13406;53.380;7.226;2023-04-06T07:04:39;101976.84;;;3.80;100.00
25498;BME280;13406;53.380;7.226;2023-04-06T07:07:05;101955.03;;;3.77;100.00
25498;BME280;13406;53.380;7.226;2023-04-06T07:09:30;102004.03;;;4.26;100.00
25498;BME280;13406;53.380;7.226;2023-04-06T07:11:56;101993.78;;;4.21;100.00
25498;BME280;13406;53.380;7.226;2023-04-06T07:14:21;101989.03;;;4.04;100.00
25498;BME280;13406;53.380;7.226;2023-04-06T07:16:47;101982.78;;;4.26;100.00
25498;BME280;13406;53.380;7.226;2023-04-06T07:19:14;101968.00;;;4.33;100.00
25498;BME280;13406;53.380;7.226;2023-04-06T07:21:39;101976.06;;;4.43;100.00
25498;BME280;13406;53.380;7.226;2023-04-06T07:24:05;101993.59;;;4.55;100.00
25498;BME280;13406;53.380;7.226;2023-04-06T07:26:31;101994.09;;;4.70;100.00
25498;BME280;13406;53.380;7.226;2023-04-06T07:28:56;101986.19;;;4.59;100.00
25498;BME280;13406;53.380;7.226;2023-04-06T07:31:22;101983.06;;;4.74;100.00
25498;BME280;13406;53.380;7.226;2023-04-06T07:33:47;101970.16;;;4.70;100.00
25498;BME280;13406;53.380;7.226;2023-04-06T07:36:13;101954.72;;;4.94;100.00
25498;BME280;13406;53.380;7.226;2023-04-06T07:38:38;101939.13;;;5.11;100.00
25498;BME280;13406;53.380;7.226;2023-04-06T07:41:04;101954.09;;;5.12;100.00
25498;BME280;13406;53.380;7.226;2023-04-06T07:43:30;101948.69;;;5.42;100.00
25498;BME280;13406;53.380;7.226;2023-04-06T07:45:56;101907.22;;;5.20;100.00
25498;BME280;13406;53.380;7.226;2023-04-06T07:48:22;101912.00;;;5.27;100.00
25498;BME280;13406;53.380;7.226;2023-04-06T07:50:48;101914.09;;;5.52;100.00
25498;BME280;13406;53.380;7.226;2023-04-06T07:53:14;101935.41;;;5.72;100.00
25498;BME280;13406;53.380;7.226;2023-04-06T07:55:39;101913.69;;;5.57;100.00
25498;BME280;13406;53.380;7.226;2023-04-06T07:58:05;101931.34;;;5.77;100.00
25498;BME280;13406;53.380;7.226;2023-04-06T08:00:30;101908.66;;;5.83;100.00
25498;BME280;13406;53.380;7.226;2023-04-06T08:02:56;101925.91;;;5.98;100.00
25498;BME280;13406;53.380;7.226;2023-04-06T08:05:21;101904.03;;;5.95;100.00
25498;BME280;13406;53.380;7.226;2023-04-06T08:07:47;101926.72;;;6.18;100.00
25498;BME280;13406;53.380;7.226;2023-04-06T08:10:12;101889.19;;;6.02;100.00
25498;BME280;13406;53.380;7.226;2023-04-06T08:12:38;101846.28;;;5.95;100.00
25498;BME280;13406;53.380;7.226;2023-04-06T08:15:04;101914.34;;;6.37;100.00
25498;BME280;13406;53.380;7.226;2023-04-06T08:17:31;101920.72;;;6.53;100.00
25498;BME280;13406;53.380;7.226;2023-04-06T08:19:56;101868.75;;;6.30;100.00
25498;BME280;13406;53.380;7.226;2023-04-06T08:22:22;101890.56;;;6.53;100.00
25498;BME280;13406;53.380;7.226;2023-04-06T08:24:47;101907.50;;;6.62;100.00
25498;BME280;13406;53.380;7.226;2023-04-06T08:27:13;101878.66;;;6.47;100.00
25498;BME280;13406;53.380;7.226;2023-04-06T08:29:40;101822.50;;;6.31;100.00
25498;BME280;13406;53.380;7.226;2023-04-06T08:32:05;101895.22;;;6.78;100.00
25498;BME280;13406;53.380;7.226;2023-04-06T08:34:34;101895.84;;;6.90;100.00
25498;BME280;13406;53.380;7.226;2023-04-06T08:36:59;101860.97;;;6.74;100.00
25498;BME280;13406;53.380;7.226;2023-04-06T08:39:25;101874.91;;;6.95;100.00
25498;BME280;13406;53.380;7.226;2023-04-06T08:41:52;101899.38;;;7.09;100.00
25498;BME280;13406;53.380;7.226;2023-04-06T08:44:22;101886.44;;;7.14;100.00
25498;BME280;13406;53.380;7.226;2023-04-06T08:46:47;101879.13;;;7.16;100.00
25498;BME280;13406;53.380;7.226;2023-04-06T08:49:14;101859.09;;;7.30;100.00
25498;BME280;13406;53.380;7.226;2023-04-06T08:51:42;101856.50;;;7.38;100.00
25498;BME280;13406;53.380;7.226;2023-04-06T08:54:08;101827.06;;;7.30;100.00
25498;BME280;13406;53.380;7.226;2023-04-06T08:56:35;101813.94;;;7.36;100.00
25498;BME280;13406;53.380;7.226;2023-04-06T08:59:02;101833.63;;;7.53;100.00
25498;BME280;13406;53.380;7.226;2023-04-06T09:01:29;101835.03;;;7.65;100.00
25498;BME280;13406;53.380;7.226;2023-04-06T09:03:58;101798.97;;;7.61;100.00
25498;BME280;13406;53.380;7.226;2023-04-06T09:06:24;101831.22;;;7.68;100.00
25498;BME280;13406;53.380;7.226;2023-04-06T09:08:52;101834.75;;;7.95;100.00
25498;BME280;13406;53.380;7.226;2023-04-06T09:11:17;101806.75;;;7.81;100.00
25498;BME280;13406;53.380;7.226;2023-04-06T09:13:47;101813.53;;;7.93;100.00
25498;BME280;13406;53.380;7.226;2023-04-06T09:16:13;101820.56;;;7.94;100.00
25498;BME280;13406;53.380;7.226;2023-04-06T09:18:39;101810.63;;;8.12;100.00
25498;BME280;13406;53.380;7.226;2023-04-06T09:21:06;101785.09;;;8.18;100.00
25498;BME280;13406;53.380;7.226;2023-04-06T09:23:32;101794.13;;;8.17;100.00
25498;BME280;13406;53.380;7.226;2023-04-06T09:28:53;101779.56;;;8.46;100.00
25498;BME280;13406;53.380;7.226;2023-04-06T09:31:24;101780.91;;;8.50;100.00
25498;BME280;13406;53.380;7.226;2023-04-06T09:33:49;101745.78;;;8.36;100.00
25498;BME280;13406;53.380;7.226;2023-04-06T09:36:15;101754.38;;;8.56;100.00
25498;BME280;13406;53.380;7.226;2023-04-06T09:38:58;101776.13;;;8.70;100.00
25498;BME280;13406;53.380;7.226;2023-04-06T09:41:28;101758.75;;;8.82;100.00
25498;BME280;13406;53.380;7.226;2023-04-06T09:44:11;101760.47;;;8.91;100.00
25498;BME280;13406;53.380;7.226;2023-04-06T09:46:41;101722.34;;;8.89;100.00
25498;BME280;13406;53.380;7.226;2023-04-06T09:49:08;101751.09;;;8.95;100.00
25498;BME280;13406;53.380;7.226;2023-04-06T09:51:39;101749.09;;;8.97;100.00
25498;BME280;13406;53.380;7.226;2023-04-06T09:54:06;101699.41;;;8.70;100.00
25498;BME280;13406;53.380;7.226;2023-04-06T09:59:51;101707.63;;;9.18;100.00
25498;BME280;13406;53.380;7.226;2023-04-06T10:05:25;101687.69;;;9.28;100.00
25498;BME280;13406;53.380;7.226;2023-04-06T10:07:56;101450.56;;;7.90;100.00
25498;BME280;13406;53.380;7.226;2023-04-06T10:10:22;101377.63;;;7.73;100.00
25498;BME280;13406;53.380;7.226;2023-04-06T10:12:48;101575.88;;;8.83;100.00
25498;BME280;13406;53.380;7.226;2023-04-06T10:15:15;101670.53;;;9.62;100.00
25498;BME280;13406;53.380;7.226;2023-04-06T10:17:41;101508.53;;;8.63;100.00
25498;BME280;13406;53.380;7.226;2023-04-06T10:20:16;101601.50;;;9.41;100.00
25498;BME280;13406;53.380;7.226;2023-04-06T10:25:58;101643.06;;;9.68;100.00
25498;BME280;13406;53.380;7.226;2023-04-06T10:28:25;101492.06;;;8.91;100.00
25498;BME280;13406;53.380;7.226;2023-04-06T10:30:57;101657.34;;;10.00;100.00
25498;BME280;13406;53.380;7.226;2023-04-06T10:33:23;101612.25;;;9.72;100.00
25498;BME280;13406;53.380;7.226;2023-04-06T10:35:48;101397.25;;;8.46;100.00
25498;BME280;13406;53.380;7.226;2023-04-06T10:38:14;101659.06;;;10.24;100.00
25498;BME280;13406;53.380;7.226;2023-04-06T10:40:41;101657.50;;;10.07;100.00
25498;BME280;13406;53.380;7.226;2023-04-06T10:43:12;101661.56;;;10.26;100.00
25498;BME280;13406;53.380;7.226;2023-04-06T10:45:39;101623.16;;;10.02;100.00
25498;BME280;13406;53.380;7.226;2023-04-06T10:48:18;101660.13;;;10.46;100.00
25498;BME280;13406;53.380;7.226;2023-04-06T10:50:48;101583.78;;;10.03;100.00
25498;BME280;13406;53.380;7.226;2023-04-06T10:53:25;101656.00;;;10.35;100.00
25498;BME280;13406;53.380;7.226;2023-04-06T10:55:52;101656.56;;;10.23;100.00
25498;BME280;13406;53.380;7.226;2023-04-06T10:58:18;101626.22;;;10.76;100.00
25498;BME280;13406;53.380;7.226;2023-04-06T11:00:48;101599.81;;;10.42;100.00
25498;BME280;13406;53.380;7.226;2023-04-06T11:03:15;101627.47;;;10.66;100.00
25498;BME280;13406;53.380;7.226;2023-04-06T11:05:48;101478.72;;;10.07;100.00
25498;BME280;13406;53.380;7.226;2023-04-06T11:08:25;101487.53;;;10.39;100.00
25498;BME280;13406;53.380;7.226;2023-04-06T11:10:50;101608.41;;;11.28;100.00
25498;BME280;13406;53.380;7.226;2023-04-06T11:13:16;101611.81;;;11.22;100.00
25498;BME280;13406;53.380;7.226;2023-04-06T11:15:42;101541.56;;;10.89;100.00
25498;BME280;13406;53.380;7.226;2023-04-06T11:18:08;101593.31;;;11.27;100.00
25498;BME280;13406;53.380;7.226;2023-04-06T11:20:33;101422.59;;;10.06;100.00
25498;BME280;13406;53.380;7.226;2023-04-06T11:22:59;101358.13;;;9.46;100.00
25498;BME280;13406;53.380;7.226;2023-04-06T11:25:25;101560.34;;;10.51;100.00
25498;BME280;13406;53.380;7.226;2023-04-06T11:27:52;101533.75;;;10.18;100.00
25498;BME280;13406;53.380;7.226;2023-04-06T11:30:18;101562.25;;;10.80;100.00
25498;BME280;13406;53.380;7.226;2023-04-06T11:32:45;101532.28;;;10.76;100.00
25498;BME280;13406;53.380;7.226;2023-04-06T11:35:22;101613.22;;;11.03;100.00
25498;BME280;13406;53.380;7.226;2023-04-06T11:37:49;101476.69;;;10.09;100.00
25498;BME280;13406;53.380;7.226;2023-04-06T11:40:15;101568.19;;;10.90;100.00
25498;BME280;13406;53.380;7.226;2023-04-06T11:42:40;101398.56;;;9.98;100.00
25498;BME280;13406;53.380;7.226;2023-04-06T11:45:07;101477.19;;;10.36;100.00
25498;BME280;13406;53.380;7.226;2023-04-06T11:47:35;101524.00;;;10.48;100.00
25498;BME280;13406;53.380;7.226;2023-04-06T11:50:08;101555.56;;;10.76;100.00
25498;BME280;13406;53.380;7.226;2023-04-06T11:52:34;101590.84;;;11.25;100.00
25498;BME280;13406;53.380;7.226;2023-04-06T11:55:10;101492.59;;;10.86;100.00
25498;BME280;13406;53.380;7.226;2023-04-06T11:57:36;101608.69;;;11.33;100.00
25498;BME280;13406;53.380;7.226;2023-04-06T12:00:02;101594.34;;;11.41;100.00
25498;BME280;13406;53.380;7.226;2023-04-06T12:02:27;101523.78;;;11.02;100.00
25498;BME280;13406;53.380;7.226;2023-04-06T12:04:53;101522.47;;;10.83;100.00
25498;BME280;13406;53.380;7.226;2023-04-06T12:07:18;101598.47;;;11.14;100.00
25498;BME280;13406;53.380;7.226;2023-04-06T12:09:44;101547.84;;;10.96;100.00
25498;BME280;13406;53.380;7.226;2023-04-06T12:12:10;101524.88;;;10.93;100.00
25498;BME280;13406;53.380;7.226;2023-04-06T12:14:35;101423.97;;;10.25;100.00
25498;BME280;13406;53.380;7.226;2023-04-06T12:17:01;101494.34;;;10.79;100.00
25498;BME280;13406;53.380;7.226;2023-04-06T12:19:26;101541.19;;;11.06;100.00
25498;BME280;13406;53.380;7.226;2023-04-06T12:21:53;101588.69;;;11.21;100.00
25498;BME280;13406;53.380;7.226;2023-04-06T12:24:19;101536.00;;;11.20;100.00
25498;BME280;13406;53.380;7.226;2023-04-06T12:26:45;101452.03;;;10.81;100.00
25498;BME280;13406;53.380;7.226;2023-04-06T12:29:11;101392.94;;;10.30;100.00
25498;BME280;13406;53.380;7.226;2023-04-06T12:31:38;101581.66;;;11.49;100.00
25498;BME280;13406;53.380;7.226;2023-04-06T12:34:06;101558.56;;;11.55;100.00
25498;BME280;13406;53.380;7.226;2023-04-06T12:36:32;101433.63;;;10.63;100.00
25498;BME280;13406;53.380;7.226;2023-04-06T12:38:58;101578.03;;;11.42;100.00
25498;BME280;13406;53.380;7.226;2023-04-06T12:41:25;101522.56;;;11.35;100.00
25498;BME280;13406;53.380;7.226;2023-04-06T12:43:51;101414.56;;;10.58;100.00
25498;BME280;13406;53.380;7.226;2023-04-06T12:46:16;101565.91;;;11.83;100.00
25498;BME280;13406;53.380;7.226;2023-04-06T12:48:42;101469.25;;;11.17;100.00
25498;BME280;13406;53.380;7.226;2023-04-06T12:51:07;101411.97;;;10.95;100.00
25498;BME280;13406;53.380;7.226;2023-04-06T12:53:34;101540.81;;;12.12;100.00
25498;BME280;13406;53.380;7.226;2023-04-06T12:56:00;101557.88;;;12.19;100.00
25498;BME280;13406;53.380;7.226;2023-04-06T12:58:26;101537.38;;;11.82;100.00